createdAt,value
2018-06-14T00:00:26.430Z,9.80
2018-06-14T00:01:26.394Z,11.00
2018-06-14T00:02:26.387Z,11.60
2018-06-14T00:03:26.346Z,13.20
2018-06-14T00:04:26.320Z,13.30
2018-06-14T00:05:26.300Z,11.10
2018-06-14T00:06:26.275Z,11.70
2018-06-14T00:07:26.251Z,11.70
2018-06-14T00:08:26.216Z,9.90
2018-06-14T00:09:26.199Z,11.00
2018-06-14T00:10:26.169Z,8.10
2018-06-14T00:11:26.151Z,9.60
2018-06-14T00:12:26.117Z,10.10
2018-06-14T00:13:26.096Z,8.60
2018-06-14T00:14:26.067Z,7.40
2018-06-14T00:15:26.046Z,10.60
2018-06-14T00:16:26.018Z,11.00
2018-06-14T00:17:26.025Z,11.40
2018-06-14T00:18:25.969Z,10.30
2018-06-14T00:19:25.940Z,9.70
2018-06-14T00:20:25.918Z,9.00
2018-06-14T00:21:25.884Z,9.00
2018-06-14T00:22:25.867Z,8.80
2018-06-14T00:23:25.838Z,11.60
2018-06-14T00:24:25.816Z,11.50
2018-06-14T00:25:25.782Z,12.60
2018-06-14T00:26:25.758Z,10.80
2018-06-14T00:27:25.737Z,9.70
2018-06-14T00:28:25.710Z,12.60
2018-06-14T00:29:25.689Z,10.10
2018-06-14T00:30:25.663Z,9.10
2018-06-14T00:31:25.630Z,8.10
2018-06-14T00:32:25.614Z,10.90
2018-06-14T00:33:25.582Z,10.20
2018-06-14T00:34:25.559Z,9.20
2018-06-14T00:35:25.524Z,10.20
2018-06-14T00:36:25.502Z,12.10
2018-06-14T00:37:25.476Z,12.00
2018-06-14T00:38:25.453Z,12.00
2018-06-14T00:39:25.431Z,11.50
2018-06-14T00:40:25.403Z,10.40
2018-06-14T00:41:25.372Z,9.80
2018-06-14T00:42:25.346Z,12.30
2018-06-14T00:43:25.327Z,9.00
2018-06-14T00:44:25.296Z,11.80
2018-06-14T00:45:25.273Z,10.00
2018-06-14T00:46:25.251Z,10.60
2018-06-14T00:47:25.216Z,12.00
2018-06-14T00:48:25.194Z,11.50
2018-06-14T00:49:25.167Z,11.60
2018-06-14T00:50:25.139Z,10.60
2018-06-14T00:51:25.118Z,11.60
2018-06-14T00:52:25.091Z,9.40
2018-06-14T00:53:25.068Z,10.50
2018-06-14T00:54:25.052Z,9.90
2018-06-14T00:55:25.013Z,11.90
2018-06-14T00:56:24.989Z,11.10
2018-06-14T00:57:24.961Z,11.30
2018-06-14T00:58:24.943Z,8.20
2018-06-14T00:59:24.916Z,11.80
2018-06-14T01:00:24.896Z,10.90
2018-06-14T01:01:24.861Z,8.30
2018-06-14T01:02:24.843Z,11.70
2018-06-14T01:03:24.810Z,11.80
2018-06-14T01:04:24.788Z,10.40
2018-06-14T01:05:24.759Z,10.80
2018-06-14T01:06:24.743Z,11.70
2018-06-14T01:07:24.704Z,11.20
2018-06-14T01:08:24.685Z,13.40
2018-06-14T01:09:24.657Z,10.80
2018-06-14T01:10:24.630Z,9.50
2018-06-14T01:11:24.610Z,12.30
2018-06-14T01:12:24.585Z,13.00
2018-06-14T01:13:24.550Z,11.50
2018-06-14T01:14:24.524Z,12.00
2018-06-14T01:15:24.506Z,13.20
2018-06-14T01:16:24.481Z,10.20
2018-06-14T01:17:24.454Z,11.30
2018-06-14T01:18:24.424Z,9.70
2018-06-14T01:19:24.401Z,9.90
2018-06-14T01:20:24.369Z,10.80
2018-06-14T01:21:24.355Z,12.10
2018-06-14T01:22:24.316Z,11.80
2018-06-14T01:23:24.301Z,11.50
2018-06-14T01:24:24.274Z,12.20
2018-06-14T01:25:24.240Z,10.80
2018-06-14T01:26:24.222Z,9.00
2018-06-14T01:27:24.190Z,12.50
2018-06-14T01:28:24.165Z,9.50
2018-06-14T01:29:24.138Z,11.10
2018-06-14T01:30:24.116Z,9.90
2018-06-14T01:31:24.092Z,11.30
2018-06-14T01:32:24.065Z,12.60
2018-06-14T01:33:24.038Z,8.90
2018-06-14T01:34:24.015Z,11.30
2018-06-14T01:35:23.999Z,10.70
2018-06-14T01:36:23.967Z,10.60
2018-06-14T01:37:23.932Z,10.80
2018-06-14T01:38:23.912Z,9.20
2018-06-14T01:39:23.881Z,9.00
2018-06-14T01:40:23.854Z,9.40
2018-06-14T01:41:23.838Z,9.10
2018-06-14T01:42:23.804Z,8.50
2018-06-14T01:43:23.790Z,10.70
2018-06-14T01:44:23.758Z,10.10
2018-06-14T01:45:23.736Z,10.30
2018-06-14T01:46:23.706Z,9.80
2018-06-14T01:47:23.681Z,9.60
2018-06-14T01:48:23.651Z,11.40
2018-06-14T01:49:23.628Z,9.20
2018-06-14T01:50:23.602Z,13.60
2018-06-14T01:51:23.573Z,10.50
2018-06-14T01:52:23.552Z,8.70
2018-06-14T01:53:23.526Z,9.70
2018-06-14T01:54:23.495Z,8.10
2018-06-14T01:55:23.478Z,10.00
2018-06-14T01:56:23.447Z,9.00
2018-06-14T01:57:23.423Z,11.30
2018-06-14T01:58:23.399Z,10.70
2018-06-14T01:59:23.370Z,11.80
2018-06-14T02:00:23.371Z,9.80
2018-06-14T02:01:23.318Z,10.10
2018-06-14T02:02:23.290Z,10.70
2018-06-14T02:03:23.269Z,8.50
2018-06-14T02:04:23.238Z,11.40
2018-06-14T02:05:23.226Z,9.90
2018-06-14T02:06:23.193Z,9.70
2018-06-14T02:07:23.170Z,8.60
2018-06-14T02:08:23.135Z,10.90
2018-06-14T02:09:23.117Z,9.80
2018-06-14T02:10:23.093Z,12.70
2018-06-14T02:11:23.058Z,12.40
2018-06-14T02:12:23.069Z,11.10
2018-06-14T02:13:23.011Z,9.50
2018-06-14T02:14:22.980Z,13.10
2018-06-14T02:15:22.964Z,11.30
2018-06-14T02:16:22.927Z,10.70
2018-06-14T02:17:22.906Z,12.00
2018-06-14T02:18:22.881Z,12.20
2018-06-14T02:19:22.860Z,9.60
2018-06-14T02:20:22.833Z,11.00
2018-06-14T02:21:22.800Z,10.90
2018-06-14T02:22:22.785Z,9.90
2018-06-14T02:23:22.747Z,12.00
2018-06-14T02:24:22.723Z,10.20
2018-06-14T02:25:22.697Z,10.50
2018-06-14T02:26:22.689Z,10.50
2018-06-14T02:27:22.647Z,10.40
2018-06-14T02:28:22.621Z,9.70
2018-06-14T02:29:22.597Z,12.90
2018-06-14T02:30:22.568Z,11.20
2018-06-14T02:31:22.541Z,11.10
2018-06-14T02:32:22.514Z,13.10
2018-06-14T02:33:22.497Z,10.70
2018-06-14T02:34:22.468Z,12.20
2018-06-14T02:35:22.440Z,13.00
2018-06-14T02:36:22.422Z,12.40
2018-06-14T02:37:22.385Z,12.80
2018-06-14T02:38:22.374Z,14.70
2018-06-14T02:39:22.345Z,14.20
2018-06-14T02:40:22.310Z,13.70
2018-06-14T02:41:22.294Z,13.50
2018-06-14T02:42:22.261Z,10.70
2018-06-14T02:43:22.240Z,12.90
2018-06-14T02:44:22.210Z,11.50
2018-06-14T02:45:22.178Z,12.10
2018-06-14T02:46:22.163Z,13.40
2018-06-14T02:47:22.133Z,13.30
2018-06-14T02:48:22.113Z,11.70
2018-06-14T02:49:22.074Z,12.60
2018-06-14T02:50:22.056Z,12.70
2018-06-14T02:51:22.080Z,12.00
2018-06-14T02:52:21.997Z,13.40
2018-06-14T02:53:21.996Z,12.60
2018-06-14T02:54:21.953Z,12.50
2018-06-14T02:55:21.925Z,13.10
2018-06-14T02:56:21.903Z,11.80
2018-06-14T02:57:21.870Z,13.50
2018-06-14T02:58:21.847Z,12.20
2018-06-14T02:59:21.829Z,12.50
2018-06-14T03:00:21.834Z,12.90
2018-06-14T03:01:21.825Z,13.70
2018-06-14T03:02:21.748Z,14.00
2018-06-14T03:03:21.771Z,14.50
2018-06-14T03:04:21.697Z,11.70
2018-06-14T03:05:21.667Z,12.60
2018-06-14T03:06:21.640Z,10.80
2018-06-14T03:07:21.620Z,14.10
2018-06-14T03:08:21.588Z,12.60
2018-06-14T03:09:21.569Z,13.60
2018-06-14T03:10:21.544Z,15.00
2018-06-14T03:11:21.511Z,12.70
2018-06-14T03:12:21.487Z,14.40
2018-06-14T03:13:21.464Z,13.90
2018-06-14T03:14:21.436Z,12.00
2018-06-14T03:15:21.410Z,13.70
2018-06-14T03:16:21.383Z,14.70
2018-06-14T03:17:21.378Z,16.00
2018-06-14T03:18:21.330Z,14.50
2018-06-14T03:19:21.306Z,15.20
2018-06-14T03:20:21.289Z,15.40
2018-06-14T03:21:21.251Z,17.20
2018-06-14T03:22:21.230Z,14.60
2018-06-14T03:23:21.199Z,12.90
2018-06-14T03:24:21.172Z,15.30
2018-06-14T03:25:21.159Z,13.50
2018-06-14T03:26:21.122Z,12.70
2018-06-14T03:27:21.103Z,15.00
2018-06-14T03:28:21.070Z,16.80
2018-06-14T03:29:21.048Z,16.50
2018-06-14T03:30:21.103Z,16.40
2018-06-14T03:31:20.996Z,16.80
2018-06-14T03:32:20.966Z,14.50
2018-06-14T03:33:20.942Z,14.50
2018-06-14T03:34:20.921Z,16.80
2018-06-14T03:35:20.890Z,15.50
2018-06-14T03:36:20.863Z,16.50
2018-06-14T03:37:20.847Z,14.10
2018-06-14T03:38:20.819Z,16.50
2018-06-14T03:39:20.787Z,14.20
2018-06-14T03:40:20.769Z,14.40
2018-06-14T03:41:20.734Z,13.80
2018-06-14T03:42:20.709Z,14.10
2018-06-14T03:43:20.687Z,14.20
2018-06-14T03:44:20.666Z,16.00
2018-06-14T03:45:20.631Z,13.70
2018-06-14T03:46:20.634Z,14.10
2018-06-14T03:47:20.580Z,15.50
2018-06-14T03:48:20.561Z,14.50
2018-06-14T03:49:20.531Z,14.30
2018-06-14T03:50:20.509Z,14.40
2018-06-14T03:51:20.474Z,15.40
2018-06-14T03:52:20.455Z,13.80
2018-06-14T03:53:20.425Z,14.50
2018-06-14T03:54:20.399Z,14.10
2018-06-14T03:55:20.376Z,14.20
2018-06-14T03:56:20.345Z,17.20
2018-06-14T03:57:20.329Z,16.20
2018-06-14T03:58:20.356Z,15.50
2018-06-14T03:59:20.284Z,16.10
2018-06-14T04:00:20.398Z,16.80
2018-06-14T04:01:20.223Z,13.50
2018-06-14T04:02:20.200Z,14.80
2018-06-14T04:03:20.164Z,15.90
2018-06-14T04:04:20.143Z,16.20
2018-06-14T04:05:20.150Z,17.30
2018-06-14T04:06:20.093Z,14.20
2018-06-14T04:07:20.204Z,17.50
2018-06-14T04:08:20.066Z,15.60
2018-06-14T04:09:20.011Z,16.00
2018-06-14T04:10:19.997Z,14.20
2018-06-14T04:11:19.973Z,14.10
2018-06-14T04:12:19.934Z,16.50
2018-06-14T04:13:19.912Z,16.60
2018-06-14T04:14:19.888Z,16.60
2018-06-14T04:15:19.857Z,17.50
2018-06-14T04:16:19.834Z,15.00
2018-06-14T04:17:19.807Z,16.90
2018-06-14T04:18:19.789Z,14.80
2018-06-14T04:19:19.773Z,15.10
2018-06-14T04:20:19.727Z,15.10
2018-06-14T04:21:19.709Z,13.70
2018-06-14T04:22:19.679Z,16.40
2018-06-14T04:23:19.665Z,16.90
2018-06-14T04:24:19.632Z,15.20
2018-06-14T04:25:19.597Z,14.40
2018-06-14T04:26:19.579Z,15.10
2018-06-14T04:27:19.626Z,15.60
2018-06-14T04:28:19.526Z,15.00
2018-06-14T04:29:19.505Z,15.30
2018-06-14T04:30:19.468Z,15.40
2018-06-14T04:31:19.453Z,16.20
2018-06-14T04:32:19.445Z,16.30
2018-06-14T04:33:19.397Z,15.20
2018-06-14T04:34:19.372Z,15.80
2018-06-14T04:35:19.346Z,14.10
2018-06-14T04:36:19.316Z,16.70
2018-06-14T04:37:19.301Z,15.90
2018-06-14T04:38:19.269Z,15.00
2018-06-14T04:39:19.262Z,16.80
2018-06-14T04:40:19.223Z,16.60
2018-06-14T04:41:19.190Z,14.00
2018-06-14T04:42:19.160Z,14.30
2018-06-14T04:43:19.146Z,16.50
2018-06-14T04:44:19.117Z,16.30
2018-06-14T04:45:19.101Z,14.70
2018-06-14T04:46:19.066Z,18.50
2018-06-14T04:47:19.036Z,16.20
2018-06-14T04:48:19.014Z,17.10
2018-06-14T04:49:19.021Z,16.20
2018-06-14T04:50:18.997Z,18.20
2018-06-14T04:51:18.966Z,15.30
2018-06-14T04:52:18.947Z,14.60
2018-06-14T04:53:18.884Z,16.60
2018-06-14T04:54:18.854Z,16.10
2018-06-14T04:55:18.829Z,13.90
2018-06-14T04:56:18.807Z,14.30
2018-06-14T04:57:18.784Z,16.50
2018-06-14T04:58:18.763Z,17.60
2018-06-14T04:59:18.725Z,13.50
2018-06-14T05:00:18.707Z,15.40
2018-06-14T05:01:18.677Z,15.10
2018-06-14T05:02:18.670Z,13.60
2018-06-14T05:03:18.633Z,15.80
2018-06-14T05:04:18.604Z,15.70
2018-06-14T05:05:18.571Z,12.80
2018-06-14T05:06:18.548Z,14.60
2018-06-14T05:07:18.523Z,14.50
2018-06-14T05:08:18.502Z,13.30
2018-06-14T05:09:18.506Z,15.60
2018-06-14T05:10:18.445Z,16.90
2018-06-14T05:11:18.432Z,12.20
2018-06-14T05:12:18.393Z,13.20
2018-06-14T05:13:18.376Z,12.80
2018-06-14T05:14:18.347Z,13.40
2018-06-14T05:15:18.347Z,14.10
2018-06-14T05:16:18.300Z,13.90
2018-06-14T05:17:18.284Z,17.10
2018-06-14T05:18:18.247Z,14.20
2018-06-14T05:19:18.215Z,12.90
2018-06-14T05:20:18.194Z,13.70
2018-06-14T05:21:18.171Z,13.60
2018-06-14T05:22:18.141Z,13.90
2018-06-14T05:23:18.121Z,13.70
2018-06-14T05:24:18.088Z,14.70
2018-06-14T05:25:18.079Z,13.50
2018-06-14T05:26:18.045Z,15.30
2018-06-14T05:27:18.016Z,15.50
2018-06-14T05:28:17.996Z,12.70
2018-06-14T05:29:17.959Z,15.10
2018-06-14T05:30:17.945Z,15.70
2018-06-14T05:31:17.914Z,12.80
2018-06-14T05:32:17.944Z,13.70
2018-06-14T05:33:17.920Z,13.30
2018-06-14T05:34:17.855Z,13.40
2018-06-14T05:35:17.818Z,14.10
2018-06-14T05:36:17.817Z,14.10
2018-06-14T05:37:17.779Z,11.50
2018-06-14T05:38:17.810Z,12.20
2018-06-14T05:39:17.742Z,13.70
2018-06-14T05:40:17.709Z,12.60
2018-06-14T05:41:17.698Z,15.00
2018-06-14T05:42:17.734Z,12.80
2018-06-14T05:43:17.614Z,16.20
2018-06-14T05:44:17.592Z,12.00
2018-06-14T05:45:17.555Z,13.00
2018-06-14T05:46:17.624Z,12.30
2018-06-14T05:47:17.512Z,13.40
2018-06-14T05:48:17.478Z,12.50
2018-06-14T05:49:17.533Z,11.90
2018-06-14T05:50:17.440Z,15.20
2018-06-14T05:51:17.407Z,15.70
2018-06-14T05:52:17.379Z,16.70
2018-06-14T05:53:17.352Z,13.40
2018-06-14T05:54:17.325Z,13.30
2018-06-14T05:55:17.306Z,12.40
2018-06-14T05:56:17.281Z,12.30
2018-06-14T05:57:17.256Z,12.30
2018-06-14T05:58:17.223Z,12.30
2018-06-14T05:59:17.203Z,9.80
2018-06-14T06:00:17.173Z,13.50
2018-06-14T06:01:17.154Z,12.20
2018-06-14T06:02:17.132Z,11.80
2018-06-14T06:03:17.099Z,11.70
2018-06-14T06:04:17.078Z,14.20
2018-06-14T06:05:17.049Z,12.80
2018-06-14T06:06:17.021Z,13.90
2018-06-14T06:07:17.002Z,13.20
2018-06-14T06:08:16.973Z,11.50
2018-06-14T06:09:16.948Z,14.20
2018-06-14T06:10:16.927Z,11.80
2018-06-14T06:11:16.899Z,12.80
2018-06-14T06:12:16.867Z,12.30
2018-06-14T06:13:16.848Z,11.90
2018-06-14T06:14:16.816Z,12.00
2018-06-14T06:15:16.801Z,12.70
2018-06-14T06:16:16.765Z,11.10
2018-06-14T06:17:16.755Z,11.90
2018-06-14T06:18:16.749Z,13.90
2018-06-14T06:19:16.700Z,11.70
2018-06-14T06:20:16.693Z,10.70
2018-06-14T06:21:16.641Z,11.70
2018-06-14T06:22:16.624Z,9.50
2018-06-14T06:23:16.589Z,13.20
2018-06-14T06:24:16.577Z,11.80
2018-06-14T06:25:16.542Z,11.00
2018-06-14T06:26:16.596Z,10.40
2018-06-14T06:27:16.497Z,13.80
2018-06-14T06:28:16.475Z,10.60
2018-06-14T06:29:16.444Z,8.90
2018-06-14T06:30:16.436Z,11.50
2018-06-14T06:31:16.394Z,8.40
2018-06-14T06:32:16.371Z,9.40
2018-06-14T06:33:16.392Z,10.00
2018-06-14T06:34:16.321Z,11.20
2018-06-14T06:35:16.313Z,8.90
2018-06-14T06:36:16.358Z,8.70
2018-06-14T06:37:16.244Z,10.60
2018-06-14T06:38:16.212Z,9.10
2018-06-14T06:39:16.194Z,10.10
2018-06-14T06:40:16.163Z,10.50
2018-06-14T06:41:16.143Z,9.60
2018-06-14T06:42:16.120Z,8.50
2018-06-14T06:43:16.096Z,7.60
2018-06-14T06:44:16.067Z,9.00
2018-06-14T06:45:16.035Z,10.00
2018-06-14T06:46:16.024Z,8.30
2018-06-14T06:47:15.985Z,9.30
2018-06-14T06:48:15.968Z,8.70
2018-06-14T06:49:15.943Z,9.30
2018-06-14T06:50:15.916Z,6.00
2018-06-14T06:51:15.896Z,9.00
2018-06-14T06:52:15.862Z,7.10
2018-06-14T06:53:15.853Z,9.20
2018-06-14T06:54:15.815Z,8.40
2018-06-14T06:55:15.787Z,10.20
2018-06-14T06:56:15.770Z,10.80
2018-06-14T06:57:15.736Z,9.50
2018-06-14T06:58:15.715Z,9.80
2018-06-14T06:59:15.693Z,7.20
2018-06-14T07:00:15.660Z,8.50
2018-06-14T07:01:15.644Z,8.50
2018-06-14T07:02:15.626Z,8.40
2018-06-14T07:03:15.594Z,10.60
2018-06-14T07:04:15.567Z,8.80
2018-06-14T07:05:15.565Z,9.60
2018-06-14T07:06:15.532Z,8.10
2018-06-14T07:07:15.489Z,10.20
2018-06-14T07:08:15.463Z,8.80
2018-06-14T07:09:15.458Z,9.80
2018-06-14T07:10:15.434Z,10.60
2018-06-14T07:11:15.410Z,10.80
2018-06-14T07:12:15.371Z,10.40
2018-06-14T07:13:15.345Z,10.60
2018-06-14T07:14:15.317Z,10.60
2018-06-14T07:15:15.295Z,9.60
2018-06-14T07:16:15.265Z,11.20
2018-06-14T07:17:15.238Z,10.10
2018-06-14T07:18:15.222Z,10.50
2018-06-14T07:19:15.192Z,12.20
2018-06-14T07:20:15.165Z,8.90
2018-06-14T07:21:15.180Z,11.40
2018-06-14T07:22:15.143Z,10.10
2018-06-14T07:23:15.090Z,10.00
2018-06-14T07:24:15.070Z,11.90
2018-06-14T07:25:15.041Z,10.20
2018-06-14T07:26:15.016Z,10.40
2018-06-14T07:27:14.999Z,10.30
2018-06-14T07:28:14.972Z,10.10
2018-06-14T07:29:14.941Z,9.60
2018-06-14T07:30:14.922Z,10.00
2018-06-14T07:31:14.889Z,8.30
2018-06-14T07:32:14.871Z,9.70
2018-06-14T07:33:14.850Z,10.60
2018-06-14T07:34:14.821Z,10.30
2018-06-14T07:35:14.796Z,10.40
2018-06-14T07:36:14.773Z,10.10
2018-06-14T07:37:14.748Z,8.10
2018-06-14T07:38:14.718Z,10.30
2018-06-14T07:39:14.701Z,10.50
2018-06-14T07:40:14.670Z,10.80
2018-06-14T07:41:14.649Z,9.00
2018-06-14T07:42:14.628Z,9.20
2018-06-14T07:43:14.595Z,8.60
2018-06-14T07:44:14.575Z,29.30
2018-06-14T07:45:14.547Z,9.30
2018-06-14T07:46:14.525Z,7.80
2018-06-14T07:47:14.508Z,7.90
2018-06-14T07:48:14.473Z,10.20
2018-06-14T07:49:14.453Z,7.60
2018-06-14T07:50:14.431Z,7.30
2018-06-14T07:51:14.401Z,6.90
2018-06-14T07:52:14.380Z,8.50
2018-06-14T07:53:14.350Z,9.90
2018-06-14T07:54:14.366Z,10.60
2018-06-14T07:55:14.305Z,9.90
2018-06-14T07:56:14.274Z,10.60
2018-06-14T07:57:14.260Z,10.30
2018-06-14T07:58:14.231Z,8.70
2018-06-14T07:59:14.207Z,7.30
2018-06-14T08:00:14.188Z,9.30
2018-06-14T08:01:14.152Z,10.00
2018-06-14T08:02:14.138Z,8.50
2018-06-14T08:03:14.103Z,10.40
2018-06-14T08:04:14.080Z,9.00
2018-06-14T08:05:14.064Z,8.70
2018-06-14T08:06:14.031Z,8.90
2018-06-14T08:07:14.017Z,9.60
2018-06-14T08:08:13.985Z,12.90
2018-06-14T08:09:13.962Z,10.20
2018-06-14T08:10:13.937Z,12.00
2018-06-14T08:11:13.911Z,10.80
2018-06-14T08:12:13.929Z,9.20
2018-06-14T08:13:13.867Z,10.60
2018-06-14T08:14:13.838Z,7.80
2018-06-14T08:15:13.821Z,9.00
2018-06-14T08:16:13.794Z,10.40
2018-06-14T08:17:13.765Z,9.00
2018-06-14T08:18:13.741Z,9.30
2018-06-14T08:19:13.721Z,9.20
2018-06-14T08:20:13.697Z,8.90
2018-06-14T08:21:13.671Z,12.70
2018-06-14T08:22:13.646Z,12.20
2018-06-14T08:23:13.617Z,9.60
2018-06-14T08:24:13.591Z,8.30
2018-06-14T08:25:13.571Z,11.40
2018-06-14T08:26:13.550Z,9.00
2018-06-14T08:27:13.518Z,12.20
2018-06-14T08:28:13.497Z,10.20
2018-06-14T08:29:13.471Z,10.10
2018-06-14T08:30:13.445Z,10.00
2018-06-14T08:31:13.429Z,11.20
2018-06-14T08:32:13.398Z,12.00
2018-06-14T08:33:13.377Z,11.10
2018-06-14T08:34:13.355Z,8.70
2018-06-14T08:35:13.323Z,11.80
2018-06-14T08:36:13.299Z,7.70
2018-06-14T08:37:13.276Z,9.80
2018-06-14T08:38:13.250Z,10.90
2018-06-14T08:39:13.236Z,10.80
2018-06-14T08:40:13.211Z,10.20
2018-06-14T08:41:13.176Z,10.00
2018-06-14T08:42:13.153Z,10.30
2018-06-14T08:43:13.138Z,12.00
2018-06-14T08:44:13.108Z,10.60
2018-06-14T08:45:13.083Z,10.50
2018-06-14T08:46:13.067Z,10.30
2018-06-14T08:47:13.032Z,8.50
2018-06-14T08:48:13.006Z,10.60
2018-06-14T08:49:12.996Z,13.20
2018-06-14T08:50:12.965Z,9.80
2018-06-14T08:51:12.936Z,9.90
2018-06-14T08:52:12.924Z,36.20
2018-06-14T08:53:12.888Z,10.80
2018-06-14T08:54:12.869Z,11.50
2018-06-14T08:55:12.845Z,9.50
2018-06-14T08:56:12.815Z,10.60
2018-06-14T08:57:12.796Z,10.90
2018-06-14T08:58:12.767Z,7.50
2018-06-14T08:59:12.755Z,10.10
2018-06-14T09:00:12.721Z,8.60
2018-06-14T09:01:12.695Z,11.00
2018-06-14T09:02:12.674Z,11.80
2018-06-14T09:03:12.649Z,9.10
2018-06-14T09:04:12.629Z,11.20
2018-06-14T09:05:12.600Z,8.00
2018-06-14T09:06:12.589Z,6.70
2018-06-14T09:07:12.556Z,9.20
2018-06-14T09:08:12.530Z,10.60
2018-06-14T09:09:12.509Z,9.70
2018-06-14T09:10:12.478Z,8.80
2018-06-14T09:11:12.463Z,13.20
2018-06-14T09:12:12.435Z,9.50
2018-06-14T09:13:12.413Z,8.20
2018-06-14T09:14:12.414Z,7.70
2018-06-14T09:15:12.362Z,8.80
2018-06-14T09:16:12.340Z,9.00
2018-06-14T09:17:12.318Z,7.90
2018-06-14T09:18:12.290Z,7.00
2018-06-14T09:19:12.271Z,8.90
2018-06-14T09:20:12.246Z,10.00
2018-06-14T09:21:12.222Z,7.90
2018-06-14T09:22:12.199Z,8.60
2018-06-14T09:23:12.179Z,9.70
2018-06-14T09:24:12.157Z,11.00
2018-06-14T09:25:12.150Z,9.00
2018-06-14T09:26:12.107Z,10.20
2018-06-14T09:27:12.076Z,7.40
2018-06-14T09:28:12.059Z,9.20
2018-06-14T09:29:12.027Z,7.90
2018-06-14T09:30:12.009Z,8.30
2018-06-14T09:31:11.988Z,10.00
2018-06-14T09:32:11.956Z,7.50
2018-06-14T09:33:11.943Z,8.00
2018-06-14T09:34:11.920Z,9.90
2018-06-14T09:35:11.890Z,9.80
2018-06-14T09:36:11.877Z,11.30
2018-06-14T09:37:11.838Z,8.40
2018-06-14T09:38:11.820Z,10.60
2018-06-14T09:39:11.793Z,15.00
2018-06-14T09:40:11.778Z,10.60
2018-06-14T09:41:11.755Z,9.60
2018-06-14T09:42:11.721Z,9.00
2018-06-14T09:43:11.707Z,8.90
2018-06-14T09:44:11.676Z,9.40
2018-06-14T09:45:11.660Z,10.80
2018-06-14T09:46:11.631Z,11.30
2018-06-14T09:47:11.609Z,10.20
2018-06-14T09:48:11.589Z,10.50
2018-06-14T09:49:11.557Z,11.20
2018-06-14T09:50:11.535Z,10.50
2018-06-14T09:51:11.516Z,13.20
2018-06-14T09:52:11.485Z,10.30
2018-06-14T09:53:11.465Z,10.90
2018-06-14T09:54:11.442Z,10.80
2018-06-14T09:55:11.426Z,9.20
2018-06-14T09:56:11.399Z,10.90
2018-06-14T09:57:11.367Z,10.80
2018-06-14T09:58:11.353Z,10.60
2018-06-14T09:59:11.330Z,9.90
2018-06-14T10:00:11.301Z,10.20
2018-06-14T10:01:11.282Z,13.00
2018-06-14T10:02:11.254Z,11.20
2018-06-14T10:03:11.242Z,9.70
2018-06-14T10:04:11.212Z,10.70
2018-06-14T10:05:11.194Z,11.50
2018-06-14T10:06:11.228Z,11.40
2018-06-14T10:07:11.137Z,11.30
2018-06-14T10:08:11.109Z,10.50
2018-06-14T10:09:11.093Z,9.50
2018-06-14T10:10:11.074Z,11.50
2018-06-14T10:11:11.040Z,11.40
2018-06-14T10:12:11.018Z,10.50
2018-06-14T10:13:11.000Z,9.00
2018-06-14T10:14:10.972Z,8.50
2018-06-14T10:15:10.952Z,9.40
2018-06-14T10:16:10.932Z,10.40
2018-06-14T10:17:10.905Z,11.50
2018-06-14T10:18:10.887Z,11.20
2018-06-14T10:19:10.859Z,10.20
2018-06-14T10:20:10.834Z,10.80
2018-06-14T10:21:10.817Z,9.90
2018-06-14T10:22:10.792Z,10.50
2018-06-14T10:23:10.772Z,9.30
2018-06-14T10:24:17.886Z,11.00
2018-06-14T10:26:03.614Z,12.20
2018-06-14T10:27:03.559Z,11.90
2018-06-14T10:28:56.448Z,10.10
2018-06-14T10:29:56.385Z,13.00
2018-06-14T10:31:49.265Z,9.90
2018-06-14T10:32:49.239Z,12.10
2018-06-14T10:34:42.209Z,9.30
2018-06-14T10:35:42.096Z,9.10
2018-06-14T10:37:34.971Z,9.30
2018-06-14T10:38:34.942Z,8.40
2018-06-14T10:40:27.892Z,10.50
2018-06-14T10:41:27.791Z,9.30
2018-06-14T10:43:20.669Z,9.50
2018-06-14T10:44:20.641Z,8.80
2018-06-14T10:46:13.550Z,7.40
2018-06-14T10:47:13.490Z,9.10
2018-06-14T10:49:06.367Z,9.80
2018-06-14T10:50:06.345Z,11.40
2018-06-14T10:51:59.245Z,8.40
2018-06-14T10:52:59.196Z,26.50
2018-06-14T10:54:52.584Z,10.00
2018-06-14T10:55:52.556Z,9.00
2018-06-14T10:57:45.465Z,8.00
2018-06-14T10:58:45.405Z,7.70
2018-06-14T11:00:38.284Z,9.20
2018-06-14T11:01:38.267Z,9.60
2018-06-14T11:03:31.155Z,8.40
2018-06-14T11:04:31.102Z,10.30
2018-06-14T11:06:23.984Z,7.60
2018-06-14T11:07:23.962Z,8.40
2018-06-14T11:09:16.860Z,8.70
2018-06-14T11:10:16.815Z,8.30
2018-06-14T11:12:09.659Z,7.50
2018-06-14T11:13:09.664Z,8.10
2018-06-14T11:15:02.569Z,9.10
2018-06-14T11:16:02.511Z,7.50
2018-06-14T11:17:55.402Z,7.20
2018-06-14T11:18:55.366Z,8.80
2018-06-14T11:20:48.270Z,9.00
2018-06-14T11:21:48.214Z,10.00
2018-06-14T11:23:41.092Z,6.50
2018-06-14T11:24:41.058Z,8.80
2018-06-14T11:26:33.977Z,7.70
2018-06-14T11:27:33.914Z,9.10
2018-06-14T11:29:26.787Z,9.00
2018-06-14T11:30:26.764Z,10.80
2018-06-14T11:32:19.673Z,8.10
2018-06-14T11:33:19.607Z,9.20
2018-06-14T11:35:12.489Z,6.50
2018-06-14T11:36:12.460Z,10.40
2018-06-14T11:38:05.373Z,6.70
2018-06-14T11:39:05.321Z,6.90
2018-06-14T11:40:58.189Z,8.70
2018-06-14T11:41:58.171Z,8.00
2018-06-14T11:43:51.079Z,7.10
2018-06-14T11:44:51.010Z,7.90
2018-06-14T11:46:43.899Z,8.20
2018-06-14T11:47:43.863Z,7.60
2018-06-14T11:48:43.849Z,8.10
2018-06-14T11:49:43.824Z,6.10
2018-06-14T11:50:43.794Z,7.60
2018-06-14T11:51:43.776Z,6.70
2018-06-14T11:52:43.771Z,6.60
2018-06-14T11:53:43.740Z,6.30
2018-06-14T11:54:43.717Z,9.30
2018-06-14T11:55:43.688Z,8.70
2018-06-14T11:56:43.674Z,7.60
2018-06-14T11:57:43.644Z,6.20
2018-06-14T11:58:43.620Z,5.50
2018-06-14T11:59:43.607Z,5.70
2018-06-14T12:00:43.581Z,9.10
2018-06-14T12:01:43.568Z,7.50
2018-06-14T12:02:43.534Z,7.40
2018-06-14T12:03:43.534Z,8.90
2018-06-14T12:04:43.492Z,8.70
2018-06-14T12:05:43.471Z,7.30
2018-06-14T12:06:43.455Z,7.80
2018-06-14T12:07:43.432Z,9.40
2018-06-14T12:08:43.412Z,7.40
2018-06-14T12:09:43.381Z,9.30
2018-06-14T12:10:43.358Z,7.90
2018-06-14T12:11:43.349Z,8.30
2018-06-14T12:12:43.317Z,7.60
2018-06-14T12:13:43.295Z,8.40
2018-06-14T12:14:43.276Z,11.30
2018-06-14T12:15:43.250Z,9.20
2018-06-14T12:16:43.229Z,6.70
2018-06-14T12:17:43.211Z,6.50
2018-06-14T12:18:43.184Z,7.50
2018-06-14T12:19:43.158Z,8.50
2018-06-14T12:20:43.147Z,6.10
2018-06-14T12:21:43.119Z,7.20
2018-06-14T12:22:43.101Z,9.60
2018-06-14T12:23:43.077Z,7.30
2018-06-14T12:24:43.052Z,7.30
2018-06-14T12:25:43.029Z,6.70
2018-06-14T12:26:43.002Z,8.30
2018-06-14T12:27:42.990Z,8.10
2018-06-14T12:28:42.960Z,8.70
2018-06-14T12:29:42.940Z,8.20
2018-06-14T12:30:42.918Z,6.10
2018-06-14T12:31:42.916Z,6.20
2018-06-14T12:32:42.882Z,8.20
2018-06-14T12:33:42.850Z,5.40
2018-06-14T12:34:42.857Z,7.40
2018-06-14T12:35:42.849Z,7.20
2018-06-14T12:36:42.782Z,8.10
2018-06-14T12:37:42.766Z,8.00
2018-06-14T12:38:42.748Z,8.80
2018-06-14T12:39:42.711Z,8.20
2018-06-14T12:40:42.698Z,5.80
2018-06-14T12:41:42.672Z,8.30
2018-06-14T12:42:42.650Z,6.00
2018-06-14T12:43:42.623Z,7.60
2018-06-14T12:44:42.609Z,7.90
2018-06-14T12:45:42.587Z,9.60
2018-06-14T12:46:42.620Z,7.70
2018-06-14T12:47:42.543Z,7.80
2018-06-14T12:48:42.516Z,7.30
2018-06-14T12:49:42.495Z,7.80
2018-06-14T12:50:42.473Z,7.70
2018-06-14T12:51:42.446Z,5.10
2018-06-14T12:52:42.433Z,6.80
2018-06-14T12:53:42.407Z,6.00
2018-06-14T12:54:42.387Z,7.80
2018-06-14T12:55:42.359Z,6.90
2018-06-14T12:56:42.343Z,7.10
2018-06-14T12:57:42.326Z,7.20
2018-06-14T12:58:42.297Z,8.90
2018-06-14T12:59:42.281Z,6.10
2018-06-14T13:00:42.254Z,9.20
2018-06-14T13:01:42.238Z,8.00
2018-06-14T13:02:42.206Z,8.10
2018-06-14T13:03:42.181Z,7.20
2018-06-14T13:04:42.171Z,60.00
2018-06-14T13:05:42.142Z,79.00
2018-06-14T13:06:42.126Z,5.90
2018-06-14T13:07:42.098Z,9.50
2018-06-14T13:08:42.079Z,10.70
2018-06-14T13:09:42.058Z,10.70
2018-06-14T13:10:42.037Z,12.60
2018-06-14T13:11:42.013Z,158.30
2018-06-14T13:12:42.001Z,10.00
2018-06-14T13:13:41.976Z,37.40
2018-06-14T13:14:41.949Z,26.20
2018-06-14T13:15:41.926Z,186.30
2018-06-14T13:16:41.911Z,39.60
2018-06-14T13:17:41.884Z,42.00
2018-06-14T13:18:41.868Z,181.60
2018-06-14T13:19:41.846Z,109.10
2018-06-14T13:20:41.817Z,1367.40
2018-06-14T13:21:41.806Z,1999.90
2018-06-14T13:22:41.778Z,1999.90
2018-06-14T13:23:41.759Z,976.70
2018-06-14T13:24:41.733Z,7.00
2018-06-14T13:25:41.709Z,9.50
2018-06-14T13:26:41.699Z,8.00